Time;durP1;ratioP1;P1;durP2;ratioP2;P2;SDS_P1;SDS_P2;PMS_P1;PMS_P2;Temp;Humidity;BMP_temperature;BMP_pressure;BME280_temperature;BME280_humidity;BME280_pressure;Samples;Min_cycle;Max_cycle;Signal;HPM_P1;HPM_P2
2023/09/11 00:01:06;;;;;;;16.90;15.20;;;23.70;80.90;;;;;;4975381;28;20439;-89
2023/09/11 00:03:34;;;;;;;17.13;15.63;;;23.70;80.90;;;;;;4961479;28;20472;-88
2023/09/11 00:06:04;;;;;;;16.00;14.70;;;23.70;80.80;;;;;;4957719;28;20471;-88
2023/09/11 00:08:34;;;;;;;16.47;15.07;;;23.70;81.00;;;;;;4974530;28;20486;-89
2023/09/11 00:11:03;;;;;;;14.13;13.03;;;23.60;81.00;;;;;;4947597;28;20488;-88
2023/09/11 00:13:32;;;;;;;17.00;15.60;;;23.50;81.10;;;;;;4956139;28;20474;-88
2023/09/11 00:16:00;;;;;;;14.70;13.50;;;23.50;81.40;;;;;;4974236;28;20465;-88
2023/09/11 00:18:31;;;;;;;15.90;14.50;;;23.40;81.40;;;;;;4946440;29;20456;-88
2023/09/11 00:21:00;;;;;;;16.40;14.87;;;23.30;81.80;;;;;;4957705;28;20474;-89
2023/09/11 00:23:29;;;;;;;16.00;14.50;;;23.20;81.80;;;;;;4974152;28;20497;-88
2023/09/11 00:25:57;;;;;;;16.20;14.90;;;23.20;81.70;;;;;;4952608;28;20811;-88
2023/09/11 00:28:26;;;;;;;15.20;14.00;;;23.30;81.50;;;;;;4954117;28;20505;-89
2023/09/11 00:30:59;;;;;;;15.60;14.33;;;23.30;81.60;;;;;;4973127;28;20470;-88
2023/09/11 00:33:32;;;;;;;18.77;17.20;;;23.30;81.60;;;;;;4957782;28;20484;-89
2023/09/11 00:36:01;;;;;;;17.17;15.77;;;23.30;81.90;;;;;;4957343;28;20461;-88
2023/09/11 00:38:29;;;;;;;17.60;16.10;;;23.30;81.80;;;;;;4957105;28;20461;-89
2023/09/11 00:40:58;;;;;;;18.20;16.53;;;23.30;82.10;;;;;;4973765;28;20550;-91
2023/09/11 00:43:26;;;;;;;17.33;15.97;;;23.20;82.20;;;;;;4955714;28;20453;-88
2023/09/11 00:45:56;;;;;;;17.20;15.80;;;23.10;82.70;;;;;;4955153;28;20873;-88
2023/09/11 00:48:25;;;;;;;17.60;16.10;;;23.10;82.60;;;;;;4953308;28;20469;-88
2023/09/11 00:50:56;;;;;;;15.80;14.40;;;23.20;82.30;;;;;;4956891;28;20506;-88
2023/09/11 00:53:25;;;;;;;18.00;16.30;;;23.10;82.10;;;;;;4956888;28;20496;-89
2023/09/11 00:55:55;;;;;;;18.00;16.40;;;23.00;82.30;;;;;;4940871;28;20492;-88
2023/09/11 00:58:24;;;;;;;17.30;15.70;;;23.00;82.50;;;;;;4955900;28;20458;-88
2023/09/11 01:00:53;;;;;;;15.60;14.30;;;23.00;82.40;;;;;;4957099;28;20487;-89
2023/09/11 01:03:22;;;;;;;16.47;14.93;;;23.00;81.80;;;;;;4956582;28;20555;-88
2023/09/11 01:05:55;;;;;;;15.73;14.57;;;22.90;81.70;;;;;;4974285;28;20434;-88
2023/09/11 01:08:25;;;;;;;17.80;16.20;;;22.80;81.70;;;;;;4953381;28;20989;-88
2023/09/11 01:10:53;;;;;;;16.20;15.00;;;22.80;82.00;;;;;;4944220;28;20594;-89
2023/09/11 01:13:22;;;;;;;16.60;15.20;;;22.80;82.00;;;;;;4944255;28;20497;-88
2023/09/11 01:15:57;;;;;;;17.00;15.50;;;22.80;81.90;;;;;;4971160;28;21442;-88
2023/09/11 01:18:31;;;;;;;17.87;16.37;;;22.80;82.40;;;;;;4971720;28;20965;-90
2023/09/11 01:21:23;;;;;;;16.27;14.93;;;22.70;82.30;;;;;;4940175;28;20463;-89
2023/09/11 01:24:30;;;;;;;16.07;14.67;;;22.70;82.20;;;;;;4918637;28;20660;-89
2023/09/11 01:27:23;;;;;;;18.13;16.53;;;22.40;82.90;;;;;;4896108;28;20486;-89
2023/09/11 01:29:54;;;;;;;14.83;13.53;;;22.30;83.20;;;;;;4956012;28;20503;-88
2023/09/11 01:32:25;;;;;;;17.53;15.93;;;22.30;83.20;;;;;;4954048;29;20500;-88
2023/09/11 01:34:53;;;;;;;15.47;14.20;;;22.40;83.00;;;;;;4944699;28;20839;-89
2023/09/11 01:37:22;;;;;;;16.47;15.07;;;22.40;83.00;;;;;;4977013;28;20479;-88
2023/09/11 01:39:51;;;;;;;16.40;14.87;;;22.30;83.20;;;;;;4956100;28;20558;-88
2023/09/11 01:42:26;;;;;;;15.67;14.37;;;22.30;83.40;;;;;;4955495;28;20868;-88
2023/09/11 01:44:57;;;;;;;16.47;15.07;;;22.30;83.60;;;;;;4955110;28;20459;-87
2023/09/11 01:47:27;;;;;;;15.40;14.03;;;22.20;83.70;;;;;;4941511;29;20460;-88
2023/09/11 01:49:58;;;;;;;15.53;14.33;;;22.20;83.80;;;;;;4954775;28;20496;-90
2023/09/11 01:52:27;;;;;;;15.57;14.17;;;22.20;83.80;;;;;;4972130;28;20488;-89
2023/09/11 01:54:58;;;;;;;15.27;13.97;;;22.20;83.80;;;;;;4937617;29;20474;-89
2023/09/11 01:57:27;;;;;;;16.57;14.97;;;22.20;83.90;;;;;;4967045;28;20446;-89
2023/09/11 01:59:58;;;;;;;16.23;14.73;;;22.30;83.60;;;;;;4955529;28;20463;-88
2023/09/11 02:02:39;;;;;;;15.37;13.97;;;22.30;83.60;;;;;;4956429;28;20452;-89
2023/09/11 02:05:09;;;;;;;17.93;16.33;;;22.30;83.70;;;;;;4937729;29;20464;-88
2023/09/11 02:07:37;;;;;;;16.60;15.27;;;22.20;84.10;;;;;;4921135;29;20457;-88
2023/09/11 02:10:08;;;;;;;16.13;14.83;;;22.30;84.10;;;;;;4952424;29;20557;-91
2023/09/11 02:12:37;;;;;;;15.17;13.87;;;22.30;84.30;;;;;;4936056;29;20486;-88
2023/09/11 02:15:08;;;;;;;15.00;13.80;;;22.20;84.40;;;;;;4943077;28;20469;-89
2023/09/11 02:17:38;;;;;;;15.13;13.83;;;22.20;84.30;;;;;;4953993;28;20460;-89
2023/09/11 02:20:07;;;;;;;16.87;15.37;;;22.20;84.30;;;;;;4936027;29;20861;-88
2023/09/11 02:22:35;;;;;;;15.97;14.57;;;22.20;84.40;;;;;;4952469;28;20546;-90
2023/09/11 02:25:04;;;;;;;16.70;15.20;;;22.20;84.30;;;;;;4973311;28;20436;-89
2023/09/11 02:27:33;;;;;;;15.57;13.97;;;22.20;84.20;;;;;;4954750;28;20531;-89
2023/09/11 02:30:04;;;;;;;16.90;15.33;;;22.20;84.30;;;;;;4955303;28;20473;-88
2023/09/11 02:32:35;;;;;;;16.27;14.97;;;22.20;84.30;;;;;;4937115;28;20567;-89
2023/09/11 02:35:04;;;;;;;16.83;15.43;;;22.20;84.10;;;;;;4932572;29;20489;-88
2023/09/11 02:37:33;;;;;;;16.90;15.50;;;22.20;84.00;;;;;;4932580;29;20476;-88
2023/09/11 02:40:01;;;;;;;17.63;16.07;;;22.20;84.10;;;;;;4917348;29;20951;-88
2023/09/11 02:42:29;;;;;;;15.80;14.40;;;22.10;84.30;;;;;;4932011;29;20481;-89
2023/09/11 02:44:58;;;;;;;15.10;13.90;;;22.10;84.40;;;;;;4925491;29;20462;-88
2023/09/11 02:47:27;;;;;;;17.60;15.87;;;22.00;84.50;;;;;;4931336;29;20549;-88
2023/09/11 02:49:57;;;;;;;16.27;14.67;;;22.00;84.30;;;;;;4916924;29;20451;-91
2023/09/11 02:52:25;;;;;;;16.23;14.83;;;21.90;84.30;;;;;;4916815;29;20498;-91
2023/09/11 02:54:54;;;;;;;15.80;14.50;;;21.90;84.20;;;;;;4934866;29;20445;-88
2023/09/11 02:57:23;;;;;;;16.47;15.07;;;21.90;84.20;;;;;;4932987;29;21023;-87
2023/09/11 02:59:55;;;;;;;16.37;15.03;;;21.80;84.30;;;;;;4932915;29;21071;-88
2023/09/11 03:02:23;;;;;;;16.13;14.83;;;21.70;84.30;;;;;;4932106;29;20464;-88
2023/09/11 03:04:52;;;;;;;15.90;14.50;;;21.60;84.60;;;;;;4933001;29;20495;-88
2023/09/11 03:07:22;;;;;;;16.33;14.93;;;21.40;84.90;;;;;;4932956;29;20468;-88
2023/09/11 03:09:51;;;;;;;18.17;16.43;;;21.30;85.00;;;;;;4932260;29;20464;-89
2023/09/11 03:12:19;;;;;;;16.60;15.10;;;21.30;85.20;;;;;;4937650;29;20848;-88
2023/09/11 03:14:52;;;;;;;17.40;15.80;;;21.30;85.10;;;;;;4925157;29;20464;-89
2023/09/11 03:17:20;;;;;;;17.43;15.83;;;21.20;85.50;;;;;;4931984;29;20464;-88
2023/09/11 03:19:49;;;;;;;16.90;15.30;;;21.20;85.50;;;;;;4931854;29;20461;-88
2023/09/11 03:22:17;;;;;;;17.57;15.87;;;21.20;85.20;;;;;;4917582;29;20457;-88
2023/09/11 03:24:49;;;;;;;17.10;15.40;;;21.30;85.00;;;;;;4933981;29;20472;-88
2023/09/11 03:27:18;;;;;;;16.43;15.03;;;21.30;85.00;;;;;;4930072;29;21221;-89
2023/09/11 03:29:47;;;;;;;16.50;15.10;;;21.30;85.00;;;;;;4933150;29;20465;-88
2023/09/11 03:32:16;;;;;;;14.90;13.50;;;21.30;84.80;;;;;;4944240;28;20505;-89
2023/09/11 03:34:44;;;;;;;15.60;14.27;;;21.30;84.90;;;;;;4958567;28;20444;-87
2023/09/11 03:37:13;;;;;;;17.80;16.20;;;21.40;84.80;;;;;;4955359;28;20447;-89
2023/09/11 03:39:41;;;;;;;16.63;15.17;;;21.40;84.70;;;;;;4956688;28;20495;-88
2023/09/11 03:42:12;;;;;;;17.03;15.57;;;21.50;84.60;;;;;;4954127;29;20466;-88
2023/09/11 03:44:40;;;;;;;16.93;15.43;;;21.40;84.50;;;;;;4936653;29;20469;-89
2023/09/11 03:47:08;;;;;;;15.97;14.40;;;21.40;84.80;;;;;;4953846;29;20962;-88
2023/09/11 03:49:38;;;;;;;18.20;16.50;;;21.40;84.50;;;;;;4955469;29;20494;-88
2023/09/11 03:52:06;;;;;;;16.77;15.37;;;21.40;84.20;;;;;;4955984;29;20573;-89
2023/09/11 03:54:35;;;;;;;17.73;15.93;;;21.40;84.20;;;;;;4939584;29;20492;-88
2023/09/11 03:57:04;;;;;;;15.83;14.53;;;21.40;84.30;;;;;;4954397;29;20875;-89
2023/09/11 03:59:34;;;;;;;18.80;17.13;;;21.40;84.40;;;;;;4939661;29;20461;-89
2023/09/11 04:02:03;;;;;;;15.67;14.37;;;21.30;84.30;;;;;;4928387;29;20472;-88
2023/09/11 04:04:32;;;;;;;17.17;15.57;;;21.30;84.40;;;;;;4936689;29;20456;-89
2023/09/11 04:07:00;;;;;;;14.73;13.43;;;21.20;84.80;;;;;;4937367;29;20468;-89
2023/09/11 04:09:30;;;;;;;14.97;13.73;;;21.10;85.10;;;;;;4935925;29;20495;-89
2023/09/11 04:12:00;;;;;;;16.57;15.13;;;21.10;85.00;;;;;;4938233;29;20555;-89
2023/09/11 04:14:29;;;;;;;16.87;15.37;;;21.10;84.90;;;;;;4954558;28;20483;-88
2023/09/11 04:17:00;;;;;;;16.97;15.40;;;21.10;84.90;;;;;;4945441;29;20471;-88
2023/09/11 04:19:28;;;;;;;16.80;15.30;;;21.00;85.00;;;;;;4943854;28;20476;-91
2023/09/11 04:21:57;;;;;;;14.93;13.80;;;21.00;85.10;;;;;;4943056;29;20464;-88
2023/09/11 04:24:25;;;;;;;17.10;15.63;;;21.00;85.20;;;;;;4954188;29;20471;-88
2023/09/11 04:26:54;;;;;;;17.17;15.70;;;21.00;85.10;;;;;;4953570;29;21025;-88
2023/09/11 04:29:22;;;;;;;16.03;14.73;;;21.00;84.80;;;;;;4938466;29;20467;-88
2023/09/11 04:31:51;;;;;;;15.67;14.20;;;21.00;84.70;;;;;;4933638;29;20491;-88
2023/09/11 04:34:21;;;;;;;17.10;15.60;;;20.90;85.00;;;;;;4935395;29;20925;-90
2023/09/11 04:36:52;;;;;;;17.47;15.73;;;20.90;85.10;;;;;;4924478;29;20462;-88
2023/09/11 04:39:23;;;;;;;15.27;13.90;;;20.90;85.00;;;;;;4916977;29;20892;-88
2023/09/11 04:41:52;;;;;;;16.53;14.93;;;20.70;85.80;;;;;;4942155;28;20938;-87
2023/09/11 04:44:21;;;;;;;18.20;16.30;;;20.80;85.80;;;;;;4933648;29;20479;-88
2023/09/11 04:46:50;;;;;;;17.20;15.50;;;20.70;86.00;;;;;;4925981;29;20469;-88
2023/09/11 04:49:18;;;;;;;16.27;14.67;;;20.80;86.00;;;;;;4932849;29;21042;-88
2023/09/11 04:51:49;;;;;;;15.23;13.83;;;20.70;85.90;;;;;;4910624;29;20535;-89
2023/09/11 04:54:18;;;;;;;17.70;14.60;;;20.70;86.00;;;;;;4930396;29;20854;-89
2023/09/11 04:56:47;;;;;;;18.17;16.47;;;20.70;86.00;;;;;;4911038;29;20460;-89
2023/09/11 04:59:15;;;;;;;16.20;14.77;;;20.70;85.90;;;;;;4930643;29;20587;-89
2023/09/11 05:01:44;;;;;;;16.63;15.03;;;20.70;85.90;;;;;;4914253;29;20506;-89
2023/09/11 05:04:13;;;;;;;17.67;16.10;;;20.60;86.20;;;;;;4915309;29;21535;-88
2023/09/11 05:06:41;;;;;;;20.17;17.30;;;20.60;86.30;;;;;;4933009;29;20466;-88
2023/09/11 05:09:12;;;;;;;18.07;16.27;;;20.40;86.90;;;;;;4916898;29;20471;-90
2023/09/11 05:11:44;;;;;;;17.50;15.90;;;20.40;87.30;;;;;;4932392;29;20462;-88
2023/09/11 05:14:14;;;;;;;17.30;15.63;;;20.40;87.00;;;;;;4917454;29;20516;-88
2023/09/11 05:16:42;;;;;;;18.87;16.10;;;20.60;86.50;;;;;;4923576;29;20834;-89
2023/09/11 05:19:11;;;;;;;17.90;15.07;;;20.70;87.70;;;;;;4905886;29;20465;-90
2023/09/11 05:21:39;;;;;;;17.80;14.93;;;20.80;87.30;;;;;;4925763;29;20544;-92
2023/09/11 05:24:08;;;;;;;16.07;14.37;;;20.90;86.60;;;;;;4916406;29;20559;-90
2023/09/11 05:26:39;;;;;;;14.80;13.43;;;21.00;86.30;;;;;;4931818;29;20563;-89
2023/09/11 05:29:07;;;;;;;17.10;15.60;;;21.10;85.80;;;;;;4932586;29;20463;-88
2023/09/11 05:31:36;;;;;;;16.20;14.50;;;21.20;85.60;;;;;;4929313;29;20507;-91
2023/09/11 05:34:04;;;;;;;14.50;13.20;;;21.30;85.00;;;;;;4931316;29;20701;-89
2023/09/11 05:36:33;;;;;;;15.87;14.40;;;21.30;84.80;;;;;;4929505;29;20496;-88
2023/09/11 05:39:02;;;;;;;14.60;13.40;;;21.50;84.70;;;;;;4926397;29;20989;-90
2023/09/11 05:41:31;;;;;;;15.60;14.30;;;21.50;84.10;;;;;;4930980;29;20466;-92
2023/09/11 05:44:01;;;;;;;16.80;15.13;;;21.50;84.20;;;;;;4927824;29;20969;-88
2023/09/11 05:46:30;;;;;;;14.40;12.97;;;21.50;84.20;;;;;;4910345;29;20465;-90
2023/09/11 05:48:58;;;;;;;14.60;13.20;;;21.40;84.60;;;;;;4925253;29;20475;-90
2023/09/11 05:51:27;;;;;;;13.57;12.37;;;21.40;85.10;;;;;;4924891;29;20553;-90
2023/09/11 05:53:55;;;;;;;13.50;12.20;;;21.50;84.70;;;;;;4926257;29;20499;-92
2023/09/11 05:56:26;;;;;;;16.10;14.57;;;21.50;84.60;;;;;;4932582;29;20453;-90
2023/09/11 05:58:54;;;;;;;16.10;14.70;;;21.60;84.40;;;;;;4923702;29;20472;-89
2023/09/11 06:01:24;;;;;;;15.00;13.80;;;21.60;84.50;;;;;;4933142;29;20515;-90
2023/09/11 06:03:52;;;;;;;16.30;15.00;;;21.70;84.40;;;;;;4938465;28;21003;-90
2023/09/11 06:06:21;;;;;;;16.90;15.50;;;21.70;84.30;;;;;;4934858;29;20464;-91
2023/09/11 06:08:49;;;;;;;17.57;15.93;;;21.60;84.10;;;;;;4933440;29;20468;-89
2023/09/11 06:11:18;;;;;;;19.73;17.73;;;21.50;84.60;;;;;;4916896;29;20480;-92
2023/09/11 06:13:48;;;;;;;17.23;15.70;;;21.40;85.00;;;;;;4932207;29;20591;-92
2023/09/11 06:16:17;;;;;;;16.50;15.00;;;21.40;85.40;;;;;;4928964;29;20476;-90
2023/09/11 06:18:47;;;;;;;21.50;16.90;;;21.40;85.80;;;;;;4923668;29;20959;-90
2023/09/11 06:21:16;;;;;;;17.63;16.03;;;21.40;85.30;;;;;;4929636;29;20959;-91
2023/09/11 06:23:44;;;;;;;16.50;15.10;;;21.50;85.80;;;;;;4927578;29;20948;-89
2023/09/11 06:26:13;;;;;;;18.93;17.27;;;21.50;85.40;;;;;;4928680;28;20476;-87
2023/09/11 06:28:41;;;;;;;15.33;14.03;;;21.50;85.20;;;;;;4923076;29;20480;-89
2023/09/11 06:31:10;;;;;;;16.60;15.10;;;21.50;85.50;;;;;;4930296;28;20499;-89
2023/09/11 06:33:39;;;;;;;14.10;13.00;;;21.70;85.40;;;;;;4933067;29;20508;-88
2023/09/11 06:36:09;;;;;;;20.20;14.63;;;21.80;85.10;;;;;;4933134;29;20465;-89
2023/09/11 06:38:38;;;;;;;24.90;22.60;;;21.90;84.60;;;;;;4924981;29;20454;-88
2023/09/11 06:41:09;;;;;;;20.53;18.50;;;22.00;84.50;;;;;;4924593;29;20468;-88
2023/09/11 06:43:37;;;;;;;19.73;17.73;;;22.10;84.50;;;;;;4918781;29;20470;-89
2023/09/11 06:46:06;;;;;;;29.77;27.17;;;22.20;84.00;;;;;;4928597;29;20462;-88
2023/09/11 06:48:35;;;;;;;26.93;24.50;;;22.20;83.60;;;;;;4930784;29;20513;-88
2023/09/11 06:51:04;;;;;;;18.50;16.70;;;22.30;83.30;;;;;;4928655;29;20473;-88
2023/09/11 06:53:35;;;;;;;20.47;18.67;;;22.30;83.70;;;;;;4930378;29;21329;-88
2023/09/11 06:56:07;;;;;;;17.97;16.47;;;22.40;83.40;;;;;;4930338;29;20473;-89
2023/09/11 06:58:38;;;;;;;18.83;17.23;;;22.50;83.20;;;;;;4925778;29;20463;-88
2023/09/11 07:01:08;;;;;;;14.47;13.10;;;22.70;82.80;;;;;;4925622;29;20519;-91
2023/09/11 07:03:36;;;;;;;15.87;14.57;;;22.80;82.50;;;;;;4926023;29;20885;-90
2023/09/11 07:06:05;;;;;;;16.77;15.17;;;22.80;82.40;;;;;;4928819;29;20516;-88
2023/09/11 07:08:35;;;;;;;14.80;13.43;;;22.90;82.00;;;;;;4918086;29;20494;-89
2023/09/11 07:11:03;;;;;;;14.07;12.77;;;22.90;82.00;;;;;;4932034;29;20468;-88
2023/09/11 07:13:32;;;;;;;18.07;16.27;;;23.10;81.90;;;;;;4931926;29;21031;-89
2023/09/11 07:16:01;;;;;;;15.93;14.50;;;23.10;81.50;;;;;;4933918;29;20472;-88
2023/09/11 07:18:30;;;;;;;16.77;15.17;;;23.10;81.60;;;;;;4933049;29;21102;-90
2023/09/11 07:20:58;;;;;;;16.97;15.47;;;23.20;81.50;;;;;;4919260;29;20823;-90
2023/09/11 07:23:31;;;;;;;15.37;13.87;;;23.20;81.70;;;;;;4916696;29;21120;-89
2023/09/11 07:26:01;;;;;;;14.97;13.57;;;23.30;81.60;;;;;;4928150;29;20553;-84
2023/09/11 07:28:29;;;;;;;16.83;15.33;;;23.40;81.20;;;;;;4933157;29;20459;-86
2023/09/11 07:30:57;;;;;;;15.20;13.97;;;23.40;81.60;;;;;;4931495;28;20466;-85
2023/09/11 07:33:25;;;;;;;13.97;12.87;;;23.40;81.50;;;;;;4954965;28;20505;-88
2023/09/11 07:35:54;;;;;;;16.40;15.00;;;23.50;81.50;;;;;;4968915;28;20499;-85
2023/09/11 07:38:22;;;;;;;20.90;18.80;;;23.50;81.00;;;;;;4970593;28;20474;-86
2023/09/11 07:40:51;;;;;;;17.20;15.70;;;23.60;80.70;;;;;;4939695;28;20465;-85
2023/09/11 07:43:20;;;;;;;18.13;16.50;;;23.60;81.00;;;;;;4972557;28;20473;-86
2023/09/11 07:45:50;;;;;;;20.23;18.10;;;23.70;80.60;;;;;;4969709;28;20973;-86
2023/09/11 07:48:19;;;;;;;18.57;16.80;;;23.70;80.40;;;;;;4971087;28;20465;-86
2023/09/11 07:50:48;;;;;;;25.57;22.93;;;23.80;80.20;;;;;;4970538;28;20546;-86
2023/09/11 07:53:16;;;;;;;18.00;16.50;;;23.80;79.90;;;;;;4955377;28;20593;-86
2023/09/11 07:55:45;;;;;;;17.17;15.63;;;23.90;80.10;;;;;;4955794;28;20535;-86
2023/09/11 07:58:13;;;;;;;18.17;16.57;;;24.00;79.70;;;;;;4971736;28;20481;-87
2023/09/11 08:00:44;;;;;;;17.70;16.00;;;24.00;79.10;;;;;;4972379;28;21007;-87
2023/09/11 08:03:12;;;;;;;15.20;13.70;;;23.90;79.30;;;;;;4955210;28;20469;-88
2023/09/11 08:05:40;;;;;;;15.40;13.93;;;24.00;79.10;;;;;;4972107;28;20463;-87
2023/09/11 08:08:09;;;;;;;18.53;16.63;;;24.00;79.10;;;;;;4929901;28;20470;-87
2023/09/11 08:10:38;;;;;;;15.00;13.70;;;23.90;79.00;;;;;;4970198;28;20559;-86
2023/09/11 08:13:06;;;;;;;17.07;15.60;;;23.90;79.30;;;;;;4971383;28;20457;-85
2023/09/11 08:15:35;;;;;;;16.47;14.87;;;23.90;79.30;;;;;;4972222;28;20506;-85
2023/09/11 08:18:04;;;;;;;15.13;13.93;;;24.00;78.80;;;;;;4970621;28;20975;-85
2023/09/11 08:20:33;;;;;;;14.80;13.30;;;24.00;79.00;;;;;;4970336;28;20623;-84
2023/09/11 08:23:01;;;;;;;14.33;13.03;;;24.20;78.70;;;;;;4953204;28;20475;-85
2023/09/11 08:25:30;;;;;;;13.70;12.50;;;24.40;78.50;;;;;;4968810;28;20495;-86
2023/09/11 08:27:59;;;;;;;15.30;13.90;;;24.50;77.90;;;;;;4953621;28;20468;-86
2023/09/11 08:30:28;;;;;;;14.60;13.50;;;24.60;77.70;;;;;;4971732;28;20472;-86
2023/09/11 08:32:58;;;;;;;13.00;11.90;;;24.80;76.90;;;;;;4954639;28;20484;-85
2023/09/11 08:35:28;;;;;;;14.37;13.07;;;24.90;76.80;;;;;;4968032;28;20568;-83
2023/09/11 08:37:57;;;;;;;13.77;12.57;;;25.00;76.90;;;;;;4970162;28;20468;-85
2023/09/11 08:40:30;;;;;;;12.70;11.60;;;25.10;77.00;;;;;;4965716;28;20492;-85
2023/09/11 08:42:59;;;;;;;13.10;11.90;;;25.20;76.30;;;;;;4964006;28;20497;-85
2023/09/11 08:45:28;;;;;;;13.23;12.13;;;25.20;76.10;;;;;;4968711;28;20471;-86
2023/09/11 08:47:57;;;;;;;12.60;11.50;;;25.30;75.60;;;;;;4967736;28;20474;-86
2023/09/11 08:50:32;;;;;;;14.20;12.87;;;25.30;75.50;;;;;;4951281;28;20469;-89
2023/09/11 08:53:01;;;;;;;13.27;11.97;;;25.40;75.50;;;;;;4967542;28;20449;-86
2023/09/11 08:55:33;;;;;;;13.37;12.17;;;25.40;75.50;;;;;;4953970;28;20480;-87
2023/09/11 08:58:07;;;;;;;13.93;12.73;;;25.50;75.40;;;;;;4969961;28;20478;-89
2023/09/11 09:00:36;;;;;;;13.63;12.43;;;25.50;75.10;;;;;;4972480;28;20484;-89
2023/09/11 09:03:06;;;;;;;13.77;12.67;;;25.60;75.00;;;;;;4959095;28;20481;-89
2023/09/11 09:05:37;;;;;;;13.93;12.70;;;25.70;75.00;;;;;;4972837;28;20485;-87
2023/09/11 09:08:08;;;;;;;13.93;12.50;;;25.70;74.90;;;;;;4952569;28;20871;-88
2023/09/11 09:10:36;;;;;;;13.00;11.87;;;25.80;74.80;;;;;;4944857;28;20460;-88
2023/09/11 09:13:06;;;;;;;13.90;12.57;;;25.80;74.40;;;;;;4971383;28;20952;-87
2023/09/11 09:15:40;;;;;;;13.97;12.60;;;25.80;74.50;;;;;;4971388;28;20484;-87
2023/09/11 09:18:09;;;;;;;14.60;12.93;;;25.90;74.80;;;;;;4972668;28;21012;-87
2023/09/11 09:20:39;;;;;;;14.33;13.13;;;25.90;74.50;;;;;;4969251;28;20549;-87
2023/09/11 09:23:08;;;;;;;13.27;12.17;;;26.00;74.50;;;;;;4967808;28;21370;-86
2023/09/11 09:25:37;;;;;;;13.57;12.43;;;26.00;74.70;;;;;;4967486;28;20478;-88
2023/09/11 09:28:06;;;;;;;14.60;13.20;;;26.00;74.60;;;;;;4945980;28;20531;-84
2023/09/11 09:30:35;;;;;;;12.90;11.70;;;26.10;74.40;;;;;;4952294;28;20471;-88
2023/09/11 09:33:03;;;;;;;12.60;11.60;;;26.10;74.40;;;;;;4971507;28;20494;-88
2023/09/11 09:35:34;;;;;;;12.80;11.80;;;26.20;74.30;;;;;;4945831;28;21356;-89
2023/09/11 09:38:04;;;;;;;12.77;11.67;;;26.20;73.60;;;;;;4956478;28;20470;-86
2023/09/11 09:40:35;;;;;;;11.60;10.70;;;26.30;73.50;;;;;;4965431;28;20502;-87
2023/09/11 09:43:05;;;;;;;12.73;11.57;;;26.40;73.30;;;;;;4967567;28;20464;-86
2023/09/11 09:45:38;;;;;;;12.47;11.37;;;26.40;73.50;;;;;;4964333;28;20475;-87
2023/09/11 09:48:09;;;;;;;11.90;10.87;;;26.40;73.40;;;;;;4968146;28;20559;-87
2023/09/11 09:50:59;;;;;;;11.90;11.00;;;26.50;72.60;;;;;;4971327;28;20492;-85
2023/09/11 09:53:31;;;;;;;12.13;11.13;;;26.50;73.00;;;;;;4964544;28;20547;-86
2023/09/11 09:56:03;;;;;;;12.40;11.40;;;26.50;73.40;;;;;;4968177;28;20488;-86
2023/09/11 09:58:35;;;;;;;12.37;11.30;;;26.60;73.40;;;;;;4964062;28;20477;-87
2023/09/11 10:01:06;;;;;;;11.27;10.30;;;26.60;73.50;;;;;;4968109;28;20483;-86
2023/09/11 10:03:48;;;;;;;11.83;10.83;;;26.70;72.40;;;;;;4951436;28;20878;-89
2023/09/11 10:06:19;;;;;;;12.57;11.50;;;26.70;72.90;;;;;;4971400;28;20459;-87
2023/09/11 10:09:05;;;;;;;11.73;10.43;;;26.80;73.20;;;;;;4971312;28;20453;-85
2023/09/11 10:11:35;;;;;;;11.90;10.90;;;26.80;71.70;;;;;;4965253;28;20461;-85
2023/09/11 10:14:07;;;;;;;10.90;10.10;;;26.80;71.80;;;;;;4970957;28;20495;-85
2023/09/11 10:16:35;;;;;;;11.03;10.20;;;26.80;71.00;;;;;;4965372;28;20559;-88
2023/09/11 10:19:05;;;;;;;12.37;11.37;;;26.90;72.20;;;;;;4965028;28;20789;-85
2023/09/11 10:21:34;;;;;;;11.27;10.20;;;27.00;71.60;;;;;;4965468;28;20579;-88
2023/09/11 10:24:05;;;;;;;11.30;10.27;;;27.10;71.60;;;;;;4967572;28;20946;-87
2023/09/11 10:26:39;;;;;;;12.10;11.10;;;27.10;71.60;;;;;;4951906;28;20571;-87
2023/09/11 10:29:12;;;;;;;10.43;9.53;;;27.20;71.40;;;;;;4943655;28;20516;-87
2023/09/11 10:31:52;;;;;;;11.40;10.37;;;27.20;71.10;;;;;;4949816;28;20481;-87
2023/09/11 10:34:23;;;;;;;11.80;9.93;;;27.30;70.90;;;;;;4966370;28;20470;-86
2023/09/11 10:36:59;;;;;;;10.10;9.37;;;27.40;71.00;;;;;;4950324;28;20592;-86
2023/09/11 10:39:29;;;;;;;10.20;9.40;;;27.40;70.80;;;;;;4949181;28;20458;-87
2023/09/11 10:41:58;;;;;;;11.10;10.20;;;27.50;70.40;;;;;;4965042;28;20469;-86
2023/09/11 10:44:29;;;;;;;11.27;10.37;;;27.60;69.80;;;;;;4968264;28;20567;-85
2023/09/11 10:47:03;;;;;;;10.20;9.40;;;27.70;68.60;;;;;;4970666;28;20961;-86
2023/09/11 10:49:36;;;;;;;10.40;9.50;;;27.80;68.60;;;;;;4964901;28;20470;-85
2023/09/11 10:52:06;;;;;;;8.73;8.13;;;27.90;67.80;;;;;;4966570;28;20590;-85
2023/09/11 10:54:36;;;;;;;9.57;8.67;;;28.00;66.80;;;;;;4968726;28;20457;-87
2023/09/11 10:57:06;;;;;;;9.60;8.73;;;28.10;66.80;;;;;;4968138;28;20616;-87
2023/09/11 10:59:35;;;;;;;10.63;9.63;;;28.20;67.10;;;;;;4966208;28;20961;-88
2023/09/11 11:02:04;;;;;;;9.70;9.00;;;28.30;67.30;;;;;;4956773;28;20566;-87
2023/09/11 11:04:33;;;;;;;9.30;8.60;;;28.50;65.70;;;;;;4949739;28;20555;-87
2023/09/11 11:07:02;;;;;;;8.57;7.97;;;28.80;65.70;;;;;;4951134;28;20469;-87
2023/09/11 11:09:33;;;;;;;8.40;7.80;;;29.10;64.50;;;;;;4950994;28;20907;-87
2023/09/11 11:12:08;;;;;;;9.47;8.70;;;29.30;62.30;;;;;;4949603;28;20457;-88
2023/09/11 11:14:37;;;;;;;9.33;8.63;;;29.50;62.70;;;;;;4929221;28;20815;-87
2023/09/11 11:17:08;;;;;;;8.67;7.90;;;29.70;63.20;;;;;;4934318;28;20485;-87
2023/09/11 11:19:39;;;;;;;9.50;8.60;;;29.80;62.60;;;;;;4963770;28;20457;-89
2023/09/11 11:22:09;;;;;;;9.17;8.47;;;29.90;62.40;;;;;;4953422;28;20500;-93
2023/09/11 11:24:53;;;;;;;8.60;7.90;;;30.10;62.10;;;;;;4953251;28;20450;-89
2023/09/11 11:27:24;;;;;;;9.17;8.30;;;30.20;62.00;;;;;;4960882;28;20470;-87
2023/09/11 11:29:54;;;;;;;10.03;8.03;;;30.10;62.60;;;;;;4967987;28;20963;-87
2023/09/11 11:32:23;;;;;;;9.43;8.63;;;30.20;61.80;;;;;;4967646;28;20494;-88
2023/09/11 11:34:52;;;;;;;11.20;8.70;;;30.20;61.90;;;;;;4964482;28;20477;-88
2023/09/11 11:37:28;;;;;;;8.53;7.77;;;30.20;62.00;;;;;;4936532;28;20486;-88
2023/09/11 11:40:00;;;;;;;9.80;8.83;;;30.20;62.10;;;;;;4945435;28;20470;-89
2023/09/11 11:42:32;;;;;;;9.40;8.50;;;30.20;62.30;;;;;;4964670;28;20474;-89
2023/09/11 11:45:01;;;;;;;9.70;9.00;;;30.20;62.10;;;;;;4951242;28;20473;-89
2023/09/11 11:47:32;;;;;;;9.53;8.83;;;30.10;62.20;;;;;;4944904;28;20465;-87
2023/09/11 11:50:08;;;;;;;8.83;8.20;;;30.10;62.70;;;;;;4950479;28;20466;-87
2023/09/11 11:52:36;;;;;;;8.10;7.40;;;30.00;62.60;;;;;;4952206;28;20541;-87
2023/09/11 11:55:19;;;;;;;8.23;7.63;;;30.00;62.20;;;;;;4971330;28;20573;-90
2023/09/11 11:57:52;;;;;;;9.07;8.37;;;30.10;62.00;;;;;;4944423;28;20671;-86
2023/09/11 12:00:22;;;;;;;10.60;9.70;;;30.10;62.80;;;;;;4966159;28;20481;-88
2023/09/11 12:02:51;;;;;;;9.67;8.87;;;30.10;62.50;;;;;;4932176;28;20635;-90
2023/09/11 12:05:19;;;;;;;9.13;8.50;;;30.10;63.10;;;;;;4950762;28;20469;-88
2023/09/11 12:07:50;;;;;;;8.67;8.07;;;30.10;62.40;;;;;;4968026;28;20465;-87
2023/09/11 12:10:18;;;;;;;8.70;7.83;;;30.10;63.00;;;;;;4950668;28;20494;-88
2023/09/11 12:12:47;;;;;;;8.83;8.17;;;30.20;62.70;;;;;;4952539;28;20474;-87
2023/09/11 12:15:20;;;;;;;8.53;7.73;;;30.20;62.60;;;;;;4951059;28;20862;-87
2023/09/11 12:17:49;;;;;;;7.80;7.20;;;30.30;62.30;;;;;;4945568;28;20890;-87
2023/09/11 12:20:19;;;;;;;9.93;9.13;;;30.40;62.00;;;;;;4952856;28;20466;-87
2023/09/11 12:22:49;;;;;;;8.40;7.70;;;30.30;61.60;;;;;;4967260;28;20553;-87
2023/09/11 12:25:19;;;;;;;9.23;8.53;;;30.20;62.60;;;;;;4969527;28;20457;-85
2023/09/11 12:27:48;;;;;;;9.63;8.83;;;30.20;63.00;;;;;;4969378;28;20868;-86
2023/09/11 12:30:18;;;;;;;9.17;8.57;;;30.10;63.00;;;;;;4972611;28;20550;-85
2023/09/11 12:32:50;;;;;;;9.57;8.77;;;30.10;62.70;;;;;;4965239;28;20506;-86
2023/09/11 12:35:31;;;;;;;8.50;7.90;;;30.00;63.10;;;;;;4969261;28;20462;-87
2023/09/11 12:38:00;;;;;;;9.30;8.60;;;29.90;63.50;;;;;;4970235;28;20471;-88
2023/09/11 12:40:28;;;;;;;9.40;8.73;;;29.90;63.70;;;;;;4949617;28;20465;-89
2023/09/11 12:42:58;;;;;;;8.73;8.03;;;29.90;63.70;;;;;;4946960;28;20461;-88
2023/09/11 12:45:30;;;;;;;8.37;7.67;;;29.90;63.60;;;;;;4936145;28;20455;-86